Terminal Aerodrome Forecast
Issued by NWS Louisville, KY

Home | Current Version | Previous Version | Text Only | Print | Product List | Glossary On
Versions: 1 2 3 4 5 6 7 8 9 10 11 12 13 14 15 16 17 18 19 20
000
FTUS43 KLMK 260300 AAA
TAFLEX
TAF AMD
KLEX 260343Z 2604/2624 VRB06KT 4SM -SHRA BR OVC018
      TEMPO 2604/2608 3SM -SHRA BR BKN008
     FM260800 33013G20KT 3SM -SN BKN008
     FM261300 33010G17KT 6SM BR BKN008
     FM261700 31010KT P6SM BKN012
     FM262200 30007KT P6SM BKN022=

USA.gov is the U.S. government's official web portal to all federal, state and local government web resources and services.